Time;durP1;ratioP1;P1;durP2;ratioP2;P2;SDS_P1;SDS_P2;PMS_P1;PMS_P2;Temp;Humidity;BMP_temperature;BMP_pressure;BME280_temperature;BME280_humidity;BME280_pressure;Samples;Min_cycle;Max_cycle;Signal;HPM_P1;HPM_P2
2020/12/24 00:01:44;;;;;;;56.30;2.40;;;10.30;72.30;;;;;;5053410;28;20965;-68
2020/12/24 00:04:10;;;;;;;56.57;2.30;;;10.30;75.60;;;;;;5053363;28;20495;-69
2020/12/24 00:06:36;;;;;;;55.60;2.30;;;10.30;79.80;;;;;;5053355;28;20450;-69
2020/12/24 00:09:03;;;;;;;56.63;2.53;;;10.30;65.20;;;;;;5053392;28;20515;-69
2020/12/24 00:11:30;;;;;;;56.57;2.30;;;10.30;52.10;;;;;;5053117;28;20979;-69
2020/12/24 00:13:57;;;;;;;57.20;2.50;;;10.30;52.50;;;;;;5053224;28;20888;-69
2020/12/24 00:16:23;;;;;;;56.00;2.20;;;10.30;57.80;;;;;;5052870;28;20905;-69
2020/12/24 00:18:50;;;;;;;55.80;2.40;;;10.20;63.40;;;;;;5053683;28;20557;-68
2020/12/24 00:21:17;;;;;;;56.23;2.30;;;10.20;38.40;;;;;;5053798;28;20459;-68
2020/12/24 00:23:43;;;;;;;55.90;2.07;;;10.30;3.90;;;;;;5057160;28;20570;-68
2020/12/24 00:26:09;;;;;;;56.07;2.30;;;10.20;28.50;;;;;;5054076;28;20820;-68
2020/12/24 00:28:36;;;;;;;55.80;2.27;;;10.20;39.00;;;;;;5053097;28;20545;-68
2020/12/24 00:31:03;;;;;;;55.60;2.30;;;10.10;48.30;;;;;;5053057;28;20897;-68
2020/12/24 00:33:29;;;;;;;57.23;2.37;;;10.10;9.30;;;;;;5052848;28;20536;-68
2020/12/24 00:35:55;;;;;;;55.80;2.10;;;10.10;30.90;;;;;;5052671;28;20448;-68
2020/12/24 00:38:22;;;;;;;55.67;2.13;;;10.00;1.00;;;;;;5052991;28;20467;-68
2020/12/24 00:40:48;;;;;;;55.97;2.43;;;10.10;1.00;;;;;;5053044;28;20517;-69
2020/12/24 00:43:15;;;;;;;56.87;2.30;;;10.10;1.00;;;;;;5053032;28;20489;-68
2020/12/24 00:45:42;;;;;;;56.40;2.30;;;10.20;1.00;;;;;;5052505;28;20466;-68
2020/12/24 00:48:08;;;;;;;57.17;2.30;;;10.10;1.00;;;;;;5052558;28;20507;-68
2020/12/24 00:50:34;;;;;;;55.50;2.20;;;10.10;1.00;;;;;;5052298;28;20487;-68
2020/12/24 00:53:01;;;;;;;56.43;2.40;;;10.10;1.00;;;;;;5052675;28;20447;-69
2020/12/24 00:55:27;;;;;;;55.70;2.23;;;10.00;1.00;;;;;;5052665;28;20462;-68
2020/12/24 00:57:53;;;;;;;55.27;2.10;;;9.90;1.00;;;;;;5052566;28;20472;-68
2020/12/24 01:00:20;;;;;;;55.97;2.20;;;9.80;1.00;;;;;;5052460;28;20455;-68
2020/12/24 01:02:47;;;;;;;55.40;2.40;;;9.70;1.00;;;;;;5051790;28;20992;-68
2020/12/24 01:05:13;;;;;;;56.00;2.33;;;9.60;1.00;;;;;;5052568;28;20824;-68
2020/12/24 01:07:40;;;;;;;57.20;2.63;;;9.50;1.00;;;;;;5051485;28;20480;-68
2020/12/24 01:10:08;;;;;;;56.20;2.77;;;9.50;1.00;;;;;;5052245;28;20585;-68
2020/12/24 01:12:34;;;;;;;55.63;2.40;;;9.50;1.00;;;;;;5051974;28;20448;-68
2020/12/24 01:15:04;;;;;;;56.50;2.40;;;9.40;1.00;;;;;;5052284;28;20533;-68
2020/12/24 01:17:30;;;;;;;55.60;2.30;;;9.40;1.00;;;;;;5052059;28;20475;-68
2020/12/24 01:19:57;;;;;;;57.33;2.60;;;9.40;1.00;;;;;;5051937;28;20444;-68
2020/12/24 01:22:24;;;;;;;55.50;2.27;;;9.40;1.00;;;;;;5051696;28;20451;-68
2020/12/24 01:24:50;;;;;;;55.93;2.40;;;9.40;1.00;;;;;;5051928;28;20560;-68
2020/12/24 01:27:16;;;;;;;63.03;2.80;;;9.30;1.00;;;;;;5051736;28;20486;-68
2020/12/24 01:29:43;;;;;;;57.07;2.40;;;9.20;1.00;;;;;;5052346;28;20458;-68
2020/12/24 01:32:09;;;;;;;56.00;2.47;;;9.10;1.00;;;;;;5051804;28;20874;-68
2020/12/24 01:34:35;;;;;;;56.00;2.30;;;9.10;1.00;;;;;;5051493;28;20988;-68
2020/12/24 01:37:03;;;;;;;56.50;2.30;;;9.00;6.30;;;;;;5051572;28;20451;-68
2020/12/24 01:39:30;;;;;;;58.07;2.40;;;8.90;13.60;;;;;;5051691;28;20510;-68
2020/12/24 01:41:56;;;;;;;56.87;2.63;;;8.90;17.90;;;;;;5051574;28;20461;-68
2020/12/24 01:44:23;;;;;;;57.00;2.33;;;8.80;52.40;;;;;;5051525;28;20547;-68
2020/12/24 01:46:49;;;;;;;56.37;2.20;;;8.80;66.10;;;;;;5051960;28;20459;-68
2020/12/24 01:49:16;;;;;;;55.77;2.40;;;8.80;70.70;;;;;;5051523;28;20477;-68
2020/12/24 01:51:49;;;;;;;55.80;2.10;;;8.70;72.20;;;;;;5050908;28;20449;-69
2020/12/24 01:54:18;;;;;;;55.50;2.30;;;8.70;78.70;;;;;;5051251;28;20456;-69
2020/12/24 01:56:44;;;;;;;56.57;2.30;;;8.70;78.40;;;;;;5051374;28;20452;-69
2020/12/24 01:59:14;;;;;;;56.00;2.17;;;8.70;81.10;;;;;;5051499;28;20981;-69
2020/12/24 02:01:41;;;;;;;55.90;2.30;;;8.70;85.90;;;;;;5051642;28;20547;-69
2020/12/24 02:04:09;;;;;;;56.17;2.30;;;8.60;85.70;;;;;;5051245;28;20490;-69
2020/12/24 02:06:35;;;;;;;55.73;2.27;;;8.60;90.90;;;;;;5051227;28;20455;-69
2020/12/24 02:09:01;;;;;;;56.00;2.50;;;8.60;92.20;;;;;;5051265;28;21052;-69
2020/12/24 02:11:29;;;;;;;55.60;2.20;;;8.60;92.10;;;;;;5051248;28;20451;-69
2020/12/24 02:13:55;;;;;;;56.40;2.90;;;8.60;91.80;;;;;;5050453;28;20450;-69
2020/12/24 02:16:22;;;;;;;55.87;2.63;;;8.60;91.10;;;;;;5051332;28;20454;-69
2020/12/24 02:18:48;;;;;;;56.80;2.70;;;8.60;92.20;;;;;;5071043;22;21005;-73
2020/12/24 02:21:15;;;;;;;56.27;2.50;;;8.60;91.50;;;;;;5051235;28;20815;-74
2020/12/24 02:23:41;;;;;;;56.67;2.53;;;8.70;92.10;;;;;;5051437;28;20485;-74
2020/12/24 02:26:08;;;;;;;56.70;2.57;;;8.70;91.90;;;;;;5051517;28;20451;-74
2020/12/24 02:28:34;;;;;;;55.50;2.30;;;8.70;91.70;;;;;;5051349;28;20502;-75
2020/12/24 02:31:01;;;;;;;56.10;2.43;;;8.70;90.70;;;;;;5051306;28;20499;-74
2020/12/24 02:33:28;;;;;;;55.80;2.23;;;8.70;79.50;;;;;;5051218;28;20453;-75
2020/12/24 02:35:54;;;;;;;55.47;2.30;;;8.70;73.90;;;;;;5051322;28;20513;-75
2020/12/24 02:38:21;;;;;;;55.90;2.40;;;8.70;74.90;;;;;;5051330;28;20476;-75
2020/12/24 02:40:48;;;;;;;56.43;2.30;;;8.60;74.60;;;;;;5051345;28;20450;-73
2020/12/24 02:43:14;;;;;;;57.60;2.47;;;8.60;75.20;;;;;;5051196;28;20898;-74
2020/12/24 02:45:40;;;;;;;56.10;2.60;;;8.60;74.00;;;;;;5050806;28;20447;-75
2020/12/24 02:48:07;;;;;;;58.83;2.57;;;8.60;72.20;;;;;;5051109;28;21023;-75
2020/12/24 02:50:33;;;;;;;56.83;2.30;;;8.50;66.00;;;;;;5051270;28;20548;-75
2020/12/24 02:52:59;;;;;;;56.07;2.60;;;8.50;67.30;;;;;;5051430;28;20462;-74
2020/12/24 02:55:26;;;;;;;56.07;2.20;;;8.50;63.80;;;;;;5050988;28;20456;-73
2020/12/24 02:57:53;;;;;;;55.67;2.23;;;8.50;50.30;;;;;;5051064;28;20477;-74
2020/12/24 03:00:19;;;;;;;55.87;2.17;;;8.50;24.70;;;;;;5051021;28;20461;-75
2020/12/24 03:02:45;;;;;;;56.10;2.43;;;8.60;1.00;;;;;;5051332;28;20957;-75
2020/12/24 03:05:12;;;;;;;56.67;2.40;;;8.60;2.00;;;;;;5050876;28;20966;-75
2020/12/24 03:07:38;;;;;;;56.70;2.60;;;8.50;1.00;;;;;;5051148;28;20560;-73
2020/12/24 03:10:05;;;;;;;60.20;2.20;;;8.50;1.00;;;;;;5050930;28;20462;-73
2020/12/24 03:12:32;;;;;;;57.37;2.73;;;8.40;1.00;;;;;;5051221;28;20446;-75
2020/12/24 03:14:58;;;;;;;56.20;2.30;;;8.40;1.00;;;;;;5050466;28;20977;-73
2020/12/24 03:17:24;;;;;;;55.57;2.17;;;8.30;1.00;;;;;;5050981;28;20482;-74
2020/12/24 03:19:51;;;;;;;57.90;2.30;;;8.30;7.20;;;;;;5050714;28;20874;-75
2020/12/24 03:22:17;;;;;;;56.33;2.40;;;8.20;9.10;;;;;;5050955;28;20510;-75
2020/12/24 03:24:43;;;;;;;55.87;2.20;;;8.20;26.30;;;;;;5050579;28;20577;-75
2020/12/24 03:27:10;;;;;;;57.20;2.20;;;8.10;48.00;;;;;;5054462;28;20459;-75
2020/12/24 03:29:37;;;;;;;57.30;2.37;;;8.10;56.20;;;;;;5054508;28;20446;-75
2020/12/24 03:32:03;;;;;;;58.73;3.00;;;8.10;65.80;;;;;;5054577;28;20876;-75
2020/12/24 03:34:29;;;;;;;55.40;2.13;;;8.10;37.30;;;;;;5054282;28;20848;-74
2020/12/24 03:36:56;;;;;;;56.30;2.20;;;8.10;47.00;;;;;;5054181;28;20454;-73
2020/12/24 03:39:22;;;;;;;55.47;2.03;;;8.10;42.60;;;;;;5054389;28;20473;-75
2020/12/24 03:41:49;;;;;;;57.50;2.00;;;8.20;1.00;;;;;;5054402;28;20445;-75
2020/12/24 03:44:15;;;;;;;55.77;2.00;;;8.20;21.90;;;;;;5053773;28;20492;-73
2020/12/24 03:46:43;;;;;;;56.07;2.20;;;8.10;37.20;;;;;;5054565;28;20450;-73
2020/12/24 03:49:10;;;;;;;56.07;2.13;;;8.00;60.70;;;;;;5054404;28;20813;-72
2020/12/24 03:51:36;;;;;;;56.57;2.33;;;8.00;53.20;;;;;;5054261;28;20458;-72
2020/12/24 03:54:02;;;;;;;56.00;2.27;;;8.00;42.90;;;;;;5053619;28;20446;-73
2020/12/24 03:56:29;;;;;;;55.60;2.40;;;8.00;52.50;;;;;;5054102;28;20548;-72
2020/12/24 03:58:55;;;;;;;56.55;2.60;;;7.90;30.30;;;;;;5053883;28;20465;-72
2020/12/24 04:01:21;;;;;;;56.00;2.50;;;7.90;62.00;;;;;;5054094;28;20245;-73
2020/12/24 04:03:48;;;;;;;56.80;2.90;;;7.90;35.70;;;;;;5053911;28;20475;-72
2020/12/24 04:06:15;;;;;;;56.23;2.60;;;7.90;64.00;;;;;;5053799;28;20546;-72
2020/12/24 04:08:41;;;;;;;56.73;2.57;;;7.90;65.00;;;;;;5053857;28;20477;-72
2020/12/24 04:11:07;;;;;;;55.37;2.17;;;7.90;71.40;;;;;;5053533;28;20889;-72
2020/12/24 04:13:34;;;;;;;55.73;2.27;;;7.90;70.20;;;;;;5053559;28;20441;-72
2020/12/24 04:16:00;;;;;;;56.33;2.50;;;7.90;74.60;;;;;;5053452;28;20449;-71
2020/12/24 04:18:26;;;;;;;55.90;2.33;;;7.90;75.80;;;;;;5053678;28;20864;-71
2020/12/24 04:20:53;;;;;;;56.00;2.40;;;7.80;80.10;;;;;;5053207;28;20211;-72
2020/12/24 04:23:19;;;;;;;55.17;2.10;;;7.90;74.30;;;;;;5053498;28;20273;-72
2020/12/24 04:25:46;;;;;;;57.80;2.70;;;7.90;64.50;;;;;;5052991;28;20445;-71
2020/12/24 04:28:13;;;;;;;55.97;2.20;;;7.90;58.10;;;;;;5053794;28;20472;-72
2020/12/24 04:30:41;;;;;;;55.80;2.33;;;7.90;61.20;;;;;;5053650;28;20553;-72
2020/12/24 04:33:07;;;;;;;56.00;2.43;;;8.00;61.60;;;;;;5053574;28;20450;-72
2020/12/24 04:35:34;;;;;;;56.20;2.20;;;7.90;62.50;;;;;;5053148;28;20499;-72
2020/12/24 04:38:01;;;;;;;55.60;2.40;;;7.80;72.90;;;;;;5052291;28;20478;-72
2020/12/24 04:40:27;;;;;;;58.25;2.63;;;7.80;74.70;;;;;;5053051;28;20481;-72
2020/12/24 04:42:54;;;;;;;57.77;2.40;;;7.80;70.40;;;;;;5053454;28;20207;-72
2020/12/24 04:45:22;;;;;;;56.50;2.47;;;7.80;72.70;;;;;;5053004;28;20482;-72
2020/12/24 04:47:55;;;;;;;56.67;2.33;;;7.80;78.00;;;;;;5053256;28;20847;-72
2020/12/24 04:50:22;;;;;;;57.10;2.40;;;7.80;79.10;;;;;;5053212;28;20471;-72
2020/12/24 04:52:50;;;;;;;56.87;2.40;;;7.80;79.10;;;;;;5052806;28;20536;-71
2020/12/24 04:55:17;;;;;;;55.50;2.22;;;7.80;67.80;;;;;;5052998;28;20450;-72
2020/12/24 04:57:45;;;;;;;56.47;2.83;;;7.90;71.60;;;;;;5053288;28;20372;-74
2020/12/24 05:00:11;;;;;;;57.77;2.33;;;7.90;70.10;;;;;;5053044;28;20464;-71
2020/12/24 05:02:37;;;;;;;55.53;2.20;;;7.90;69.30;;;;;;5053019;28;20540;-71
2020/12/24 05:05:04;;;;;;;55.80;2.38;;;7.90;66.10;;;;;;5052457;28;20481;-71
2020/12/24 05:07:31;;;;;;;56.25;2.50;;;7.90;67.20;;;;;;5052322;28;20277;-71
2020/12/24 05:09:57;;;;;;;55.90;2.37;;;7.80;71.00;;;;;;5052397;28;20264;-71
2020/12/24 05:12:28;;;;;;;57.70;2.30;;;7.80;68.40;;;;;;5052828;28;20452;-71
2020/12/24 05:14:55;;;;;;;55.57;2.23;;;7.80;68.10;;;;;;5052264;28;20478;-72
2020/12/24 05:17:23;;;;;;;56.03;2.38;;;7.80;69.40;;;;;;5052464;28;20599;-71
2020/12/24 05:19:59;;;;;;;55.90;2.25;;;7.80;72.70;;;;;;5052579;28;20204;-72
2020/12/24 05:22:27;;;;;;;56.03;2.28;;;7.80;67.80;;;;;;5052765;28;20562;-70
2020/12/24 05:24:53;;;;;;;55.77;2.20;;;7.70;70.10;;;;;;5052311;28;20601;-71
2020/12/24 05:27:22;;;;;;;55.33;2.30;;;7.70;69.50;;;;;;5052461;28;20474;-72
2020/12/24 05:29:51;;;;;;;58.20;2.30;;;7.70;65.70;;;;;;5052074;28;20206;-71
2020/12/24 05:32:27;;;;;;;56.50;2.42;;;7.60;61.60;;;;;;5052011;28;20454;-72
2020/12/24 05:35:06;;;;;;;55.47;2.07;;;7.60;69.70;;;;;;5052319;28;20261;-72
2020/12/24 05:37:33;;;;;;;56.00;2.20;;;7.50;70.30;;;;;;5052373;28;20528;-71
2020/12/24 05:40:15;;;;;;;56.83;2.20;;;7.40;72.10;;;;;;5052199;28;20466;-72
2020/12/24 05:42:50;;;;;;;55.60;2.20;;;7.40;75.00;;;;;;5052055;28;20446;-72
2020/12/24 05:45:19;;;;;;;56.67;2.40;;;7.40;72.40;;;;;;5051771;28;20515;-71
2020/12/24 05:47:45;;;;;;;57.27;2.70;;;7.40;71.80;;;;;;5051779;28;20481;-72
2020/12/24 05:50:25;;;;;;;56.00;2.50;;;7.40;68.20;;;;;;5051901;28;20550;-72
2020/12/24 05:53:08;;;;;;;56.83;2.60;;;7.30;70.80;;;;;;5051734;28;20955;-72
2020/12/24 05:55:35;;;;;;;57.90;2.13;;;7.30;70.50;;;;;;5051485;28;20211;-70
2020/12/24 05:58:02;;;;;;;56.97;2.63;;;7.30;67.90;;;;;;5051781;28;20530;-72
2020/12/24 06:00:34;;;;;;;59.10;2.60;;;7.30;64.50;;;;;;5051840;28;20533;-72
2020/12/24 06:03:13;;;;;;;55.97;2.33;;;7.20;66.20;;;;;;5051493;28;20454;-72
2020/12/24 06:05:57;;;;;;;55.70;2.30;;;7.20;53.70;;;;;;5051284;28;20465;-71
2020/12/24 06:08:25;;;;;;;57.10;2.47;;;7.20;63.60;;;;;;5051594;28;20472;-71
2020/12/24 06:11:10;;;;;;;56.30;2.50;;;7.20;50.10;;;;;;5051445;28;21031;-71
2020/12/24 06:13:41;;;;;;;56.83;2.33;;;7.20;66.40;;;;;;5051428;28;20692;-72
2020/12/24 06:16:09;;;;;;;56.10;2.40;;;7.10;69.60;;;;;;5051046;28;20247;-71
2020/12/24 06:18:38;;;;;;;59.10;2.87;;;7.10;67.70;;;;;;5051387;28;20473;-72
2020/12/24 06:21:13;;;;;;;57.75;2.40;;;7.10;66.50;;;;;;5051374;28;20533;-72
2020/12/24 06:23:44;;;;;;;56.55;2.50;;;7.10;57.70;;;;;;5051490;28;20222;-71
2020/12/24 06:26:12;;;;;;;59.37;2.57;;;7.20;61.60;;;;;;5051014;28;20581;-72
2020/12/24 06:28:40;;;;;;;59.97;2.60;;;7.20;56.80;;;;;;5051165;28;20473;-71
2020/12/24 06:31:08;;;;;;;56.53;2.50;;;7.30;48.00;;;;;;5051278;28;20465;-72
2020/12/24 06:33:34;;;;;;;59.50;3.00;;;7.30;59.50;;;;;;5051256;28;20952;-71
2020/12/24 06:36:00;;;;;;;56.75;2.72;;;7.30;62.50;;;;;;5051208;28;20449;-72
2020/12/24 06:38:46;;;;;;;57.70;2.35;;;7.40;37.00;;;;;;5051232;28;20318;-72
2020/12/24 06:41:22;;;;;;;57.80;2.60;;;7.40;50.50;;;;;;5050820;28;20208;-70
2020/12/24 06:43:49;;;;;;;56.17;2.53;;;7.40;58.90;;;;;;5051395;28;20230;-71
2020/12/24 06:46:16;;;;;;;55.37;2.20;;;7.40;38.50;;;;;;5050959;28;20553;-71
2020/12/24 06:48:57;;;;;;;57.53;2.47;;;7.50;34.60;;;;;;5051004;28;20985;-71
2020/12/24 06:51:23;;;;;;;57.97;2.55;;;7.50;60.50;;;;;;5051176;28;20482;-71
2020/12/24 06:53:50;;;;;;;58.30;2.80;;;7.50;56.70;;;;;;5050799;28;20232;-72
2020/12/24 06:56:23;;;;;;;57.73;2.80;;;7.50;11.90;;;;;;5050686;28;21035;-72
2020/12/24 06:58:57;;;;;;;56.08;2.28;;;7.60;9.90;;;;;;5050855;28;20466;-71
2020/12/24 07:01:26;;;;;;;60.20;2.90;;;7.60;35.00;;;;;;5053952;28;20684;-71
2020/12/24 07:03:54;;;;;;;56.50;2.50;;;7.60;38.40;;;;;;5054859;28;21083;-71
2020/12/24 07:06:54;;;;;;;57.70;2.80;;;7.60;25.10;;;;;;5054537;28;20446;-72
2020/12/24 07:09:40;;;;;;;59.38;3.10;;;7.60;14.30;;;;;;5054599;28;20535;-71
2020/12/24 07:12:07;;;;;;;58.00;2.90;;;7.60;17.20;;;;;;5054825;28;20261;-71
2020/12/24 07:14:34;;;;;;;57.90;2.70;;;7.50;35.90;;;;;;5054784;28;20457;-71
2020/12/24 07:17:08;;;;;;;57.75;2.65;;;7.50;51.90;;;;;;5054958;28;20477;-72
2020/12/24 07:19:36;;;;;;;55.90;2.50;;;7.40;59.30;;;;;;5054783;28;20210;-72
2020/12/24 07:22:06;;;;;;;57.47;2.97;;;7.40;48.60;;;;;;5054666;28;20456;-72
2020/12/24 07:24:32;;;;;;;58.03;2.47;;;7.40;52.80;;;;;;5054323;28;20530;-72
2020/12/24 07:27:00;;;;;;;56.07;2.60;;;7.50;33.10;;;;;;5053890;28;20226;-72
2020/12/24 07:29:29;;;;;;;58.70;3.27;;;7.50;23.40;;;;;;5054170;28;20476;-72
2020/12/24 07:32:00;;;;;;;59.03;3.07;;;7.60;15.50;;;;;;5054125;28;20536;-72
2020/12/24 07:34:28;;;;;;;58.97;3.10;;;7.60;5.00;;;;;;5054062;28;20446;-72
2020/12/24 07:36:55;;;;;;;58.93;2.77;;;7.60;1.00;;;;;;5053943;28;20229;-72
2020/12/24 07:39:22;;;;;;;58.73;3.00;;;7.60;1.00;;;;;;5053823;28;20923;-71
2020/12/24 07:41:49;;;;;;;58.63;2.80;;;7.70;1.00;;;;;;5054015;28;20464;-72
2020/12/24 07:44:17;;;;;;;58.00;2.70;;;7.70;1.00;;;;;;5053884;28;20524;-72
2020/12/24 07:46:44;;;;;;;56.80;2.20;;;7.80;1.00;;;;;;5054312;28;20449;-71
2020/12/24 07:49:11;;;;;;;56.37;2.20;;;7.70;1.00;;;;;;5053903;28;20527;-72
2020/12/24 07:51:38;;;;;;;57.80;2.70;;;7.80;1.00;;;;;;5053773;28;20871;-72
2020/12/24 07:54:06;;;;;;;59.10;2.57;;;7.80;1.00;;;;;;5053372;28;20491;-72
2020/12/24 07:56:33;;;;;;;58.87;2.60;;;7.80;1.00;;;;;;5053263;28;20815;-72
2020/12/24 07:59:01;;;;;;;57.90;2.63;;;7.80;1.00;;;;;;5053539;28;20465;-72
2020/12/24 08:01:28;;;;;;;56.40;2.77;;;7.80;1.00;;;;;;5054103;28;20458;-72
2020/12/24 08:04:02;;;;;;;59.30;2.73;;;7.90;1.00;;;;;;5053670;28;20897;-72
2020/12/24 08:06:29;;;;;;;56.87;2.90;;;7.90;1.00;;;;;;5053569;28;21032;-71
2020/12/24 08:09:08;;;;;;;59.95;2.92;;;7.90;1.00;;;;;;5053538;28;20482;-72
2020/12/24 08:11:35;;;;;;;62.70;3.50;;;7.90;1.00;;;;;;5052651;28;20209;-72
2020/12/24 08:14:01;;;;;;;56.40;2.77;;;7.90;1.00;;;;;;5053700;28;20863;-72
2020/12/24 08:16:29;;;;;;;60.27;2.93;;;8.00;1.00;;;;;;5053427;28;20450;-72
2020/12/24 08:19:02;;;;;;;59.77;2.43;;;8.00;1.00;;;;;;5053521;28;20488;-72
2020/12/24 08:21:34;;;;;;;59.03;3.00;;;8.00;1.00;;;;;;5053768;28;20439;-72
2020/12/24 08:24:05;;;;;;;58.37;2.90;;;8.00;1.00;;;;;;5053946;28;21026;-72
2020/12/24 08:26:34;;;;;;;57.37;2.53;;;8.00;1.00;;;;;;5053103;28;20451;-72
2020/12/24 08:29:04;;;;;;;57.57;2.70;;;8.00;1.00;;;;;;5053442;28;20465;-72
2020/12/24 08:31:32;;;;;;;61.93;3.27;;;8.10;1.00;;;;;;5053250;28;20446;-72
2020/12/24 08:33:59;;;;;;;57.77;3.80;;;8.00;1.00;;;;;;5053302;28;20462;-72
2020/12/24 08:36:27;;;;;;;58.97;2.50;;;8.00;1.00;;;;;;5052921;28;20451;-72
2020/12/24 08:39:05;;;;;;;57.77;2.97;;;8.00;1.00;;;;;;5053284;28;20815;-71
2020/12/24 08:41:34;;;;;;;61.30;3.60;;;8.10;1.00;;;;;;5053260;28;20462;-72
2020/12/24 08:44:03;;;;;;;57.60;2.83;;;8.20;1.00;;;;;;5052978;28;20486;-72
2020/12/24 08:46:30;;;;;;;57.63;2.63;;;8.20;1.00;;;;;;5052656;28;20448;-72
2020/12/24 08:48:57;;;;;;;58.47;2.70;;;8.10;1.00;;;;;;5052983;28;20472;-71
2020/12/24 08:51:23;;;;;;;57.72;2.25;;;8.20;1.00;;;;;;5053008;28;20446;-72
2020/12/24 08:53:50;;;;;;;55.67;2.40;;;8.30;1.00;;;;;;5052965;28;20211;-71
2020/12/24 08:56:17;;;;;;;57.30;2.20;;;8.30;1.00;;;;;;5052741;28;20459;-71
2020/12/24 08:58:49;;;;;;;56.43;2.27;;;8.40;1.00;;;;;;5052471;28;20464;-71
2020/12/24 09:01:16;;;;;;;58.67;2.50;;;8.30;1.00;;;;;;5052942;28;20498;-72
2020/12/24 09:03:43;;;;;;;56.43;2.20;;;8.40;1.00;;;;;;5052554;28;20480;-72
2020/12/24 09:06:11;;;;;;;55.77;2.17;;;8.40;1.00;;;;;;5052569;28;20445;-72
2020/12/24 09:08:39;;;;;;;57.30;2.20;;;8.40;1.00;;;;;;5052998;28;20471;-72
2020/12/24 09:11:06;;;;;;;56.80;2.23;;;8.40;1.00;;;;;;5052379;28;20498;-72
2020/12/24 09:13:32;;;;;;;56.77;2.00;;;8.30;1.00;;;;;;5052661;28;20511;-70
2020/12/24 09:16:09;;;;;;;56.00;1.97;;;8.40;1.00;;;;;;5052353;28;20843;-71
2020/12/24 09:18:35;;;;;;;56.30;2.30;;;8.40;1.00;;;;;;5052515;28;20486;-72
2020/12/24 09:21:09;;;;;;;56.60;2.13;;;8.40;1.00;;;;;;5051648;28;20465;-70
2020/12/24 09:23:36;;;;;;;57.80;2.40;;;8.40;1.00;;;;;;5051781;28;20452;-72
2020/12/24 09:26:02;;;;;;;58.27;2.07;;;8.40;1.00;;;;;;5050472;28;21105;-72
2020/12/24 09:28:30;;;;;;;55.90;2.27;;;8.40;1.00;;;;;;5052445;28;20575;-72
2020/12/24 09:30:58;;;;;;;55.70;2.00;;;8.40;1.00;;;;;;5052067;28;20541;-72
2020/12/24 09:33:26;;;;;;;55.77;2.27;;;8.40;1.00;;;;;;5052297;28;20941;-72
2020/12/24 09:35:52;;;;;;;55.90;2.40;;;8.40;1.00;;;;;;5051989;28;20444;-71
2020/12/24 09:38:19;;;;;;;56.27;2.13;;;8.40;1.00;;;;;;5051777;28;20833;-72
2020/12/24 09:40:45;;;;;;;56.90;2.20;;;8.30;1.00;;;;;;5052337;28;20450;-71
2020/12/24 09:43:12;;;;;;;62.40;2.90;;;8.40;1.00;;;;;;5052180;28;20460;-72
2020/12/24 09:45:39;;;;;;;57.07;2.20;;;8.40;1.00;;;;;;5051812;28;20492;-71
2020/12/24 09:48:06;;;;;;;56.53;2.20;;;8.40;1.00;;;;;;5051913;28;20471;-70
2020/12/24 09:50:35;;;;;;;56.10;2.27;;;8.40;1.00;;;;;;5051753;28;20478;-72
2020/12/24 09:53:01;;;;;;;55.50;2.10;;;8.50;1.00;;;;;;5051711;28;20453;-72
2020/12/24 09:55:28;;;;;;;55.77;2.30;;;8.50;1.00;;;;;;5051824;28;20447;-72
2020/12/24 09:57:54;;;;;;;56.07;2.20;;;8.60;1.00;;;;;;5051848;28;20865;-71
2020/12/24 10:00:21;;;;;;;56.90;2.23;;;8.60;1.00;;;;;;5051697;28;20487;-73
2020/12/24 10:02:47;;;;;;;55.77;2.13;;;8.60;1.00;;;;;;5051805;28;20466;-71
2020/12/24 10:05:13;;;;;;;55.57;2.23;;;8.70;1.00;;;;;;5051195;28;20562;-72
2020/12/24 10:07:41;;;;;;;56.27;2.50;;;8.80;1.00;;;;;;5051363;28;20474;-71
2020/12/24 10:10:07;;;;;;;57.80;2.37;;;8.90;1.00;;;;;;5051637;28;20510;-71
2020/12/24 10:12:33;;;;;;;56.60;2.40;;;8.90;1.00;;;;;;5051714;28;20471;-71
2020/12/24 10:15:00;;;;;;;56.60;2.63;;;8.90;1.00;;;;;;5051233;28;20451;-71
2020/12/24 10:17:26;;;;;;;56.17;2.27;;;8.90;1.00;;;;;;5051260;28;20512;-70
2020/12/24 10:19:53;;;;;;;59.60;2.30;;;9.00;1.00;;;;;;5051134;28;20504;-71
2020/12/24 10:22:20;;;;;;;56.90;2.10;;;9.00;1.00;;;;;;5051636;28;20447;-71
2020/12/24 10:24:47;;;;;;;59.33;2.77;;;9.00;1.00;;;;;;5051231;28;20505;-71
2020/12/24 10:27:14;;;;;;;57.20;2.23;;;9.00;1.00;;;;;;5051392;28;20538;-71
2020/12/24 10:29:40;;;;;;;55.60;2.30;;;9.00;1.00;;;;;;5051317;28;20524;-72
2020/12/24 10:32:07;;;;;;;55.60;2.20;;;9.00;1.00;;;;;;5051261;28;20480;-71
2020/12/24 10:34:33;;;;;;;56.27;2.10;;;9.00;1.00;;;;;;5050205;28;20504;-70
2020/12/24 10:37:00;;;;;;;56.30;2.20;;;9.00;1.00;;;;;;5051322;28;20461;-70
2020/12/24 10:39:26;;;;;;;56.20;2.23;;;9.00;1.00;;;;;;5051377;28;20822;-70
2020/12/24 10:41:54;;;;;;;55.30;2.10;;;9.00;1.00;;;;;;5051388;28;20455;-71
2020/12/24 10:44:21;;;;;;;57.87;2.30;;;9.00;1.00;;;;;;5051262;28;20483;-71
2020/12/24 10:46:47;;;;;;;56.87;2.27;;;9.10;1.00;;;;;;5051265;28;20458;-71
2020/12/24 10:49:14;;;;;;;56.60;2.50;;;9.00;1.00;;;;;;5051408;28;21028;-70
2020/12/24 10:51:40;;;;;;;55.93;1.80;;;9.10;1.00;;;;;;5051361;28;20478;-71
2020/12/24 10:54:06;;;;;;;55.50;2.10;;;9.00;1.00;;;;;;5051051;28;20446;-71
2020/12/24 10:56:33;;;;;;;56.73;2.17;;;9.10;1.00;;;;;;5050958;28;20463;-71
2020/12/24 10:59:00;;;;;;;58.17;2.23;;;9.10;1.00;;;;;;5050925;28;20467;-69
2020/12/24 11:01:26;;;;;;;55.77;2.10;;;9.20;1.00;;;;;;5051028;28;20450;-71
2020/12/24 11:03:52;;;;;;;55.50;2.00;;;9.20;1.00;;;;;;5050552;28;20482;-71
2020/12/24 11:06:21;;;;;;;56.47;2.40;;;9.40;1.00;;;;;;5050956;28;20482;-71
2020/12/24 11:08:48;;;;;;;55.93;2.20;;;9.40;1.00;;;;;;5051394;28;20524;-71
2020/12/24 11:11:14;;;;;;;55.70;2.10;;;9.50;1.00;;;;;;5050858;28;20501;-71
2020/12/24 11:13:42;;;;;;;56.00;2.00;;;9.50;1.00;;;;;;5051369;28;20457;-71
2020/12/24 11:16:09;;;;;;;55.90;2.10;;;9.60;1.00;;;;;;5050382;28;20455;-70
2020/12/24 11:18:37;;;;;;;56.57;2.03;;;9.60;1.00;;;;;;5050685;28;20495;-71
2020/12/24 11:21:04;;;;;;;55.40;1.90;;;9.60;1.00;;;;;;5050729;28;20938;-71
2020/12/24 11:23:30;;;;;;;55.80;2.13;;;9.80;1.00;;;;;;5050999;28;20443;-70
2020/12/24 11:25:56;;;;;;;56.20;2.80;;;9.90;1.00;;;;;;5050342;28;21032;-71
2020/12/24 11:28:22;;;;;;;58.40;2.53;;;10.10;1.00;;;;;;5050749;28;20478;-71
2020/12/24 11:30:49;;;;;;;58.30;2.10;;;10.40;1.00;;;;;;5050436;28;20443;-71
2020/12/24 11:33:16;;;;;;;55.63;2.00;;;10.80;1.00;;;;;;5050824;28;20451;-71
2020/12/24 11:35:43;;;;;;;55.73;2.00;;;11.00;1.00;;;;;;5050630;28;20527;-71
2020/12/24 11:38:09;;;;;;;55.30;1.90;;;10.90;1.00;;;;;;5050634;28;20468;-71
2020/12/24 11:40:35;;;;;;;55.20;1.90;;;10.80;1.00;;;;;;5050585;28;20460;-71
2020/12/24 11:43:01;;;;;;;55.20;2.00;;;11.60;1.00;;;;;;5050753;28;20443;-72
2020/12/24 11:45:28;;;;;;;55.37;1.90;;;12.80;1.00;;;;;;5050147;28;20897;-72
2020/12/24 11:47:54;;;;;;;55.97;2.23;;;14.20;1.00;;;;;;5053743;28;20495;-72
2020/12/24 11:50:21;;;;;;;56.73;2.33;;;15.90;1.00;;;;;;5054341;28;20452;-70
2020/12/24 11:52:48;;;;;;;55.70;1.90;;;17.30;1.00;;;;;;5054256;28;20524;-72
2020/12/24 11:55:14;;;;;;;56.47;2.10;;;17.20;1.00;;;;;;5053834;28;20536;-72
2020/12/24 11:57:40;;;;;;;55.60;2.00;;;16.70;1.00;;;;;;5054312;28;20464;-73
2020/12/24 12:00:08;;;;;;;55.20;2.00;;;17.10;1.00;;;;;;5054138;28;20588;-70
2020/12/24 12:02:34;;;;;;;55.63;2.10;;;17.30;1.00;;;;;;5054634;28;20542;-71
2020/12/24 12:05:01;;;;;;;55.30;2.20;;;16.20;1.00;;;;;;5053671;28;20484;-70
2020/12/24 12:07:28;;;;;;;55.70;2.00;;;15.20;1.00;;;;;;5053959;28;20887;-71
2020/12/24 12:09:55;;;;;;;55.37;2.00;;;14.60;1.00;;;;;;5053599;28;20491;-72
2020/12/24 12:12:21;;;;;;;55.97;2.00;;;14.20;1.00;;;;;;5053802;28;20448;-72
2020/12/24 12:14:47;;;;;;;55.50;2.00;;;13.60;1.00;;;;;;5053159;28;20450;-71
2020/12/24 12:17:14;;;;;;;55.97;2.17;;;13.10;1.00;;;;;;5053653;28;20502;-71
2020/12/24 12:19:43;;;;;;;57.30;2.10;;;12.80;1.00;;;;;;5053636;28;20452;-71
2020/12/24 12:22:10;;;;;;;56.43;2.30;;;12.40;1.00;;;;;;5053609;28;20452;-71
2020/12/24 12:24:37;;;;;;;55.87;2.67;;;12.10;1.00;;;;;;5053581;28;20482;-71
2020/12/24 12:27:03;;;;;;;60.00;2.50;;;12.20;1.00;;;;;;5052891;28;20499;-70
2020/12/24 12:29:30;;;;;;;56.70;2.07;;;12.60;1.00;;;;;;5052784;28;20448;-69
2020/12/24 12:31:56;;;;;;;55.77;1.90;;;13.20;1.00;;;;;;5053390;28;20825;-70
2020/12/24 12:34:22;;;;;;;56.43;2.10;;;13.80;1.00;;;;;;5053460;28;20440;-70
2020/12/24 12:36:49;;;;;;;55.47;2.07;;;13.80;1.00;;;;;;5053037;28;20496;-70
2020/12/24 12:39:18;;;;;;;56.60;2.10;;;13.60;1.00;;;;;;5053200;28;20547;-70
2020/12/24 12:41:46;;;;;;;56.30;2.10;;;13.30;1.00;;;;;;5053048;28;20463;-69
2020/12/24 12:44:12;;;;;;;55.60;2.07;;;12.90;1.00;;;;;;5053297;28;20503;-69
2020/12/24 12:46:39;;;;;;;55.47;2.10;;;12.60;1.00;;;;;;5052808;28;20515;-69
2020/12/24 12:49:05;;;;;;;55.33;1.90;;;12.20;1.00;;;;;;5053106;28;20855;-70
2020/12/24 12:51:33;;;;;;;55.77;1.97;;;12.10;1.00;;;;;;5053069;28;20456;-70
2020/12/24 12:53:59;;;;;;;56.17;1.97;;;12.20;1.00;;;;;;5052817;28;20504;-69